Time;durP1;ratioP1;P1;durP2;ratioP2;P2;SDS_P1;SDS_P2;PMS_P1;PMS_P2;Temp;Humidity;BMP_temperature;BMP_pressure;BME280_temperature;BME280_humidity;BME280_pressure;Samples;Min_cycle;Max_cycle;Signal;HPM_P1;HPM_P2
2022/07/10 00:01:22;;;;;;;4.63;3.42;;;18.00;99.90;;;;;;5041134;28;20140;-72
2022/07/10 00:03:54;;;;;;;3.65;3.33;;;18.00;99.90;;;;;;5036681;28;20091;-72
2022/07/10 00:06:26;;;;;;;3.72;3.42;;;18.00;99.90;;;;;;5022216;28;20045;-72
2022/07/10 00:08:58;;;;;;;3.72;3.33;;;17.90;99.90;;;;;;5042939;28;20091;-72
2022/07/10 00:11:29;;;;;;;4.60;3.50;;;17.80;99.90;;;;;;5016093;28;20049;-72
2022/07/10 00:14:01;;;;;;;4.05;3.65;;;17.80;99.90;;;;;;5039878;28;20052;-72
2022/07/10 00:16:33;;;;;;;5.90;3.58;;;17.70;99.90;;;;;;5040674;28;20037;-72
2022/07/10 00:19:05;;;;;;;4.88;3.88;;;17.70;99.90;;;;;;5016815;28;20049;-72
2022/07/10 00:21:36;;;;;;;3.88;3.58;;;17.60;99.90;;;;;;5014111;28;20056;-73
2022/07/10 00:24:10;;;;;;;4.03;3.70;;;17.50;99.90;;;;;;5019617;28;20529;-72
2022/07/10 00:26:42;;;;;;;4.38;4.07;;;17.40;99.90;;;;;;5041454;28;20076;-73
2022/07/10 00:29:15;;;;;;;4.80;4.10;;;17.30;99.90;;;;;;5041828;28;20505;-72
2022/07/10 00:31:46;;;;;;;4.15;3.72;;;17.30;99.90;;;;;;5024566;28;20041;-72
2022/07/10 00:34:18;;;;;;;4.75;4.25;;;17.40;99.90;;;;;;5039317;28;20037;-72
2022/07/10 00:36:50;;;;;;;5.07;4.13;;;17.40;99.90;;;;;;5020632;28;20055;-72
2022/07/10 00:39:21;;;;;;;4.40;4.00;;;17.40;99.90;;;;;;5028848;28;20043;-72
2022/07/10 00:41:53;;;;;;;6.97;4.20;;;17.30;99.90;;;;;;5019736;28;20049;-72
2022/07/10 00:44:25;;;;;;;4.85;4.38;;;17.10;99.90;;;;;;5031318;28;20409;-72
2022/07/10 00:46:56;;;;;;;5.03;4.15;;;17.00;99.90;;;;;;5044389;28;20039;-72
2022/07/10 00:49:28;;;;;;;5.75;5.07;;;17.00;99.90;;;;;;5024305;28;20052;-73
2022/07/10 00:52:03;;;;;;;5.53;4.53;;;16.90;99.90;;;;;;5013780;28;20062;-72
2022/07/10 00:54:35;;;;;;;5.50;4.45;;;16.90;99.90;;;;;;5025263;28;20517;-72
2022/07/10 00:57:07;;;;;;;5.95;4.68;;;16.80;99.90;;;;;;5041989;28;20037;-72
2022/07/10 00:59:39;;;;;;;5.18;4.63;;;16.70;99.90;;;;;;5042585;28;20037;-72
2022/07/10 01:02:12;;;;;;;4.75;4.35;;;16.60;99.90;;;;;;5027010;28;20037;-72
2022/07/10 01:04:44;;;;;;;5.57;4.53;;;16.60;99.90;;;;;;5026705;28;20057;-72
2022/07/10 01:07:16;;;;;;;5.38;4.88;;;16.50;99.90;;;;;;5041883;28;20049;-72
2022/07/10 01:09:47;;;;;;;5.28;4.80;;;16.50;99.90;;;;;;5035499;28;20073;-72
2022/07/10 01:12:20;;;;;;;4.57;4.18;;;16.60;99.90;;;;;;5037130;28;20049;-72
2022/07/10 01:14:53;;;;;;;4.93;4.50;;;16.60;99.90;;;;;;5015703;28;20041;-72
2022/07/10 01:17:25;;;;;;;4.90;4.50;;;16.60;99.90;;;;;;5032852;28;20045;-72
2022/07/10 01:19:57;;;;;;;4.47;4.07;;;16.60;99.90;;;;;;5041401;28;20523;-72
2022/07/10 01:22:29;;;;;;;4.90;4.40;;;16.50;99.90;;;;;;5026512;28;20146;-72
2022/07/10 01:25:01;;;;;;;5.63;4.60;;;16.40;99.90;;;;;;5010404;28;20045;-72
2022/07/10 01:27:32;;;;;;;5.45;4.70;;;16.30;99.90;;;;;;5042689;28;20530;-72
2022/07/10 01:30:05;;;;;;;4.32;3.92;;;16.30;99.90;;;;;;5032110;28;20060;-73
2022/07/10 01:32:38;;;;;;;4.87;4.37;;;16.20;99.90;;;;;;5013854;28;20047;-72
2022/07/10 01:35:10;;;;;;;5.60;4.70;;;16.10;99.90;;;;;;5042739;28;20045;-72
2022/07/10 01:37:42;;;;;;;4.90;4.47;;;16.10;99.90;;;;;;5033582;28;20052;-72
2022/07/10 01:40:14;;;;;;;5.97;4.35;;;16.10;99.90;;;;;;5029342;28;20052;-72
2022/07/10 01:42:46;;;;;;;5.13;4.63;;;16.10;99.90;;;;;;5026276;28;20042;-72
2022/07/10 01:45:18;;;;;;;5.35;4.82;;;16.10;99.90;;;;;;5035503;28;20389;-72
2022/07/10 01:47:45;;;;;;;5.38;4.60;;;16.20;99.90;;;;;;5032682;28;20424;-72
2022/07/10 01:50:16;;;;;;;5.35;4.43;;;16.20;99.90;;;;;;5016443;28;20042;-72
2022/07/10 01:52:48;;;;;;;5.45;4.43;;;16.20;99.90;;;;;;5043771;28;20021;-72
2022/07/10 01:55:20;;;;;;;5.07;4.68;;;16.20;99.90;;;;;;5046474;28;20073;-72
2022/07/10 01:57:51;;;;;;;5.13;4.70;;;16.10;99.90;;;;;;5044134;28;20507;-72
2022/07/10 02:00:27;;;;;;;5.00;4.60;;;15.90;99.90;;;;;;5033799;28;20481;-72
2022/07/10 02:05:51;;;;;;;4.72;4.32;;;15.70;99.90;;;;;;5008338;28;20049;-72
2022/07/10 02:08:23;;;;;;;4.85;4.45;;;15.70;99.90;;;;;;5029766;28;20049;-72
2022/07/10 02:10:55;;;;;;;5.05;4.55;;;15.70;99.90;;;;;;5022821;28;20065;-72
2022/07/10 02:13:27;;;;;;;5.07;4.68;;;15.70;99.90;;;;;;5030559;28;20141;-72
2022/07/10 02:15:59;;;;;;;5.10;4.70;;;15.70;99.90;;;;;;5031795;28;20059;-72
2022/07/10 02:18:32;;;;;;;6.93;4.45;;;15.60;99.90;;;;;;5030831;28;20523;-71
2022/07/10 02:21:04;;;;;;;5.43;5.03;;;15.50;99.90;;;;;;5034791;28;20050;-72
2022/07/10 02:23:36;;;;;;;7.45;5.03;;;15.40;99.90;;;;;;5041409;28;20055;-72
2022/07/10 02:26:08;;;;;;;5.47;4.97;;;15.40;99.90;;;;;;5020885;28;20052;-71
2022/07/10 02:28:40;;;;;;;5.25;4.85;;;15.40;99.90;;;;;;5014173;28;20050;-72
2022/07/10 02:31:11;;;;;;;5.30;4.80;;;15.40;99.90;;;;;;5037827;28;20047;-72
2022/07/10 02:33:43;;;;;;;5.30;4.80;;;15.40;99.90;;;;;;5016037;28;20045;-72
2022/07/10 02:36:15;;;;;;;5.15;4.70;;;15.40;99.90;;;;;;5014594;28;20763;-72
2022/07/10 02:38:47;;;;;;;5.60;5.20;;;15.40;99.90;;;;;;5037738;28;20037;-72
2022/07/10 02:41:18;;;;;;;5.53;5.03;;;15.40;99.90;;;;;;5013963;28;20160;-72
2022/07/10 02:43:50;;;;;;;5.72;5.13;;;15.50;99.90;;;;;;5001178;28;20052;-72
2022/07/10 02:46:22;;;;;;;5.63;5.20;;;15.50;99.90;;;;;;5044305;28;20519;-72
2022/07/10 02:48:53;;;;;;;5.32;4.82;;;15.60;99.90;;;;;;5036753;28;20048;-72
2022/07/10 02:51:25;;;;;;;6.00;5.40;;;15.60;99.90;;;;;;5009926;28;20042;-72
2022/07/10 02:53:58;;;;;;;4.97;4.57;;;15.60;99.90;;;;;;5019661;28;20030;-73
2022/07/10 02:56:30;;;;;;;4.93;4.53;;;15.70;99.90;;;;;;5044505;28;20049;-72
2022/07/10 02:59:01;;;;;;;5.50;4.97;;;15.60;99.90;;;;;;5020602;28;20121;-72
2022/07/10 03:01:33;;;;;;;5.40;5.00;;;15.50;99.90;;;;;;5034200;28;20045;-72
2022/07/10 03:04:05;;;;;;;5.57;5.03;;;15.60;99.90;;;;;;5018248;28;20048;-72
2022/07/10 03:06:37;;;;;;;5.93;5.32;;;15.50;99.90;;;;;;5038705;28;20063;-72
2022/07/10 03:09:08;;;;;;;5.45;4.95;;;15.40;99.90;;;;;;5033681;28;20052;-72
2022/07/10 03:11:40;;;;;;;5.75;5.10;;;15.30;99.90;;;;;;5027397;28;20045;-72
2022/07/10 03:14:12;;;;;;;5.97;5.38;;;15.30;99.90;;;;;;5026683;28;20515;-72
2022/07/10 03:16:43;;;;;;;5.78;5.28;;;15.40;99.90;;;;;;5027614;28;20069;-72
2022/07/10 03:19:15;;;;;;;5.82;5.30;;;15.40;99.90;;;;;;5025566;28;20068;-72
2022/07/10 03:21:47;;;;;;;6.38;5.78;;;15.40;99.90;;;;;;5031419;28;20051;-72
2022/07/10 03:24:19;;;;;;;6.13;5.63;;;15.40;99.90;;;;;;5034937;28;20045;-72
2022/07/10 03:26:50;;;;;;;6.07;5.47;;;15.40;99.90;;;;;;5021318;28;20406;-72
2022/07/10 03:29:22;;;;;;;7.18;6.55;;;15.50;99.90;;;;;;5032870;28;20069;-72
2022/07/10 03:31:54;;;;;;;6.68;6.07;;;15.50;99.90;;;;;;5033762;28;20047;-72
2022/07/10 03:34:25;;;;;;;6.78;6.10;;;15.40;99.90;;;;;;5041646;28;20037;-72
2022/07/10 03:36:57;;;;;;;8.55;6.88;;;15.40;99.90;;;;;;5034368;28;20428;-72
2022/07/10 03:39:29;;;;;;;6.75;6.15;;;15.40;99.90;;;;;;5042083;28;20419;-72
2022/07/10 03:42:01;;;;;;;6.78;6.13;;;15.40;99.90;;;;;;5012233;28;20057;-72
2022/07/10 03:44:32;;;;;;;7.18;6.43;;;15.40;99.90;;;;;;5015438;28;20045;-72
2022/07/10 03:47:04;;;;;;;6.15;5.65;;;15.40;99.90;;;;;;5027890;28;20060;-72
2022/07/10 03:49:38;;;;;;;6.88;6.18;;;15.40;99.90;;;;;;5032190;28;20049;-72
2022/07/10 03:52:10;;;;;;;6.38;5.57;;;15.40;99.90;;;;;;5038185;28;20770;-72
2022/07/10 03:54:41;;;;;;;6.75;5.80;;;15.40;99.90;;;;;;5041367;28;20489;-72
2022/07/10 04:00:04;;;;;;;6.47;5.85;;;15.50;99.90;;;;;;5035601;28;20519;-72
2022/07/10 04:02:39;;;;;;;6.13;5.53;;;15.50;99.90;;;;;;5039919;28;20581;-72
2022/07/10 04:05:11;;;;;;;7.70;6.13;;;15.50;99.90;;;;;;5019070;28;20236;-72
2022/07/10 04:07:43;;;;;;;6.22;5.65;;;15.50;99.90;;;;;;5044745;28;20041;-72
2022/07/10 04:10:15;;;;;;;7.35;6.18;;;15.50;99.90;;;;;;5037451;28;20053;-72
2022/07/10 04:12:47;;;;;;;6.85;6.25;;;15.50;99.90;;;;;;5040445;28;20045;-72
2022/07/10 04:15:20;;;;;;;8.00;7.20;;;15.50;99.90;;;;;;5041587;28;20048;-72
2022/07/10 04:17:52;;;;;;;7.50;6.33;;;15.50;99.90;;;;;;5025952;28;20390;-72
2022/07/10 04:20:24;;;;;;;6.65;6.05;;;15.50;99.90;;;;;;5043554;28;20053;-72
2022/07/10 04:22:56;;;;;;;7.93;7.23;;;15.50;99.90;;;;;;5029655;28;20056;-72
2022/07/10 04:25:28;;;;;;;7.82;7.13;;;15.50;99.90;;;;;;5046157;28;20127;-72
2022/07/10 04:28:00;;;;;;;7.50;6.80;;;15.40;99.90;;;;;;5041942;28;20041;-72
2022/07/10 04:30:32;;;;;;;7.60;6.85;;;15.40;99.90;;;;;;5038621;28;20409;-72
2022/07/10 04:33:03;;;;;;;7.68;6.95;;;15.30;99.90;;;;;;5035113;28;20068;-72
2022/07/10 04:35:35;;;;;;;7.60;6.97;;;15.20;99.90;;;;;;5023456;28;20388;-72
2022/07/10 04:38:07;;;;;;;8.70;7.70;;;15.20;99.90;;;;;;5020883;28;20048;-72
2022/07/10 04:40:38;;;;;;;8.07;7.38;;;15.20;99.90;;;;;;5040891;28;20038;-72
2022/07/10 04:43:11;;;;;;;8.20;7.47;;;15.20;99.90;;;;;;5015811;28;20042;-72
2022/07/10 04:45:42;;;;;;;10.15;8.52;;;15.20;99.90;;;;;;5037227;28;20048;-72
2022/07/10 04:48:14;;;;;;;7.93;7.22;;;15.20;99.90;;;;;;5043369;28;20051;-72
2022/07/10 04:50:46;;;;;;;11.30;7.80;;;15.20;99.90;;;;;;5032769;28;20052;-72
2022/07/10 04:53:17;;;;;;;8.02;7.28;;;15.20;99.90;;;;;;5034357;28;20523;-72
2022/07/10 04:55:49;;;;;;;8.75;7.95;;;15.20;99.90;;;;;;5040410;28;20406;-72
2022/07/10 04:58:21;;;;;;;9.02;8.07;;;15.10;99.90;;;;;;5045243;28;20132;-72
2022/07/10 05:00:53;;;;;;;8.75;7.90;;;15.10;99.90;;;;;;5014472;28;20511;-72
2022/07/10 05:03:24;;;;;;;8.43;7.63;;;15.10;99.90;;;;;;5019149;28;20045;-72
2022/07/10 05:05:56;;;;;;;10.15;8.52;;;15.20;99.90;;;;;;5037080;28;20386;-72
2022/07/10 05:08:28;;;;;;;9.38;8.38;;;15.20;99.90;;;;;;5043730;28;20515;-72
2022/07/10 05:11:00;;;;;;;11.23;8.63;;;15.20;99.90;;;;;;5022876;28;20041;-72
2022/07/10 05:13:31;;;;;;;14.07;9.65;;;15.20;99.90;;;;;;5026551;28;20038;-72
2022/07/10 05:16:04;;;;;;;13.98;10.07;;;15.30;99.90;;;;;;5032318;28;20052;-72
2022/07/10 05:18:36;;;;;;;13.55;10.82;;;15.30;99.90;;;;;;5037439;28;20080;-72
2022/07/10 05:21:08;;;;;;;9.70;8.70;;;15.40;99.90;;;;;;5031012;28;20076;-72
2022/07/10 05:23:40;;;;;;;12.02;9.07;;;15.30;99.90;;;;;;5042680;28;20045;-72
2022/07/10 05:26:12;;;;;;;9.82;8.85;;;15.20;99.90;;;;;;5030798;28;20517;-72
2022/07/10 05:28:43;;;;;;;10.82;9.77;;;15.10;99.90;;;;;;5043778;28;20080;-72
2022/07/10 05:31:15;;;;;;;11.45;9.70;;;15.10;99.90;;;;;;5032637;28;20052;-72
2022/07/10 05:33:47;;;;;;;11.05;9.80;;;15.10;99.90;;;;;;5038948;23;20045;-71
2022/07/10 05:36:19;;;;;;;9.73;8.73;;;15.20;99.90;;;;;;5015454;28;20040;-72
2022/07/10 05:38:50;;;;;;;10.52;9.52;;;15.20;99.90;;;;;;5012187;28;20038;-73
2022/07/10 05:41:22;;;;;;;9.60;8.68;;;15.20;99.90;;;;;;4994788;28;20426;-71
2022/07/10 05:43:55;;;;;;;9.77;8.77;;;15.10;99.90;;;;;;5013508;28;20080;-72
2022/07/10 05:46:27;;;;;;;9.03;8.23;;;15.10;99.90;;;;;;5011935;28;20049;-72
2022/07/10 05:48:58;;;;;;;10.25;8.80;;;15.10;99.90;;;;;;4995703;28;20042;-71
2022/07/10 05:51:30;;;;;;;10.13;9.07;;;15.20;99.90;;;;;;4994599;28;20542;-72
2022/07/10 05:54:02;;;;;;;10.15;8.65;;;15.20;99.90;;;;;;5016474;28;20037;-71
2022/07/10 05:56:34;;;;;;;9.63;8.63;;;15.30;99.90;;;;;;5005936;28;20038;-71
2022/07/10 05:59:06;;;;;;;9.43;8.52;;;15.40;99.90;;;;;;5004479;28;20081;-72
2022/07/10 06:01:38;;;;;;;10.50;8.00;;;15.40;99.90;;;;;;4997979;28;20072;-71
2022/07/10 06:04:10;;;;;;;8.43;7.53;;;15.60;99.90;;;;;;4993654;28;20052;-72
2022/07/10 06:06:41;;;;;;;7.95;7.20;;;15.60;99.90;;;;;;4998122;28;20050;-72
2022/07/10 06:09:13;;;;;;;9.07;8.15;;;15.70;99.90;;;;;;4998817;28;20049;-72
2022/07/10 06:11:48;;;;;;;7.32;6.53;;;15.80;99.90;;;;;;4995196;28;20408;-72
2022/07/10 06:14:19;;;;;;;7.78;6.80;;;15.80;99.90;;;;;;5015516;28;20042;-72
2022/07/10 06:16:51;;;;;;;7.65;6.28;;;15.90;99.90;;;;;;4996968;28;20429;-72
2022/07/10 06:19:23;;;;;;;8.27;6.13;;;16.00;99.90;;;;;;5011945;28;20034;-72
2022/07/10 06:24:45;;;;;;;6.95;5.35;;;16.00;99.90;;;;;;5011979;28;20065;-72
2022/07/10 06:27:12;;;;;;;5.55;4.97;;;15.90;99.90;;;;;;5015410;28;20046;-72
2022/07/10 06:29:43;;;;;;;9.68;5.05;;;16.00;99.90;;;;;;4998109;28;20042;-72
2022/07/10 06:32:16;;;;;;;8.23;5.03;;;16.10;99.90;;;;;;4998517;28;20113;-72
2022/07/10 06:34:48;;;;;;;6.68;5.05;;;16.10;99.90;;;;;;4995265;28;20494;-72
2022/07/10 06:37:20;;;;;;;6.30;5.07;;;16.20;99.90;;;;;;4994324;28;20038;-72
2022/07/10 06:39:51;;;;;;;5.93;4.88;;;16.30;99.90;;;;;;4997214;28;20042;-72
2022/07/10 06:42:23;;;;;;;8.35;7.43;;;16.50;99.90;;;;;;5015218;28;20046;-71
2022/07/10 06:44:58;;;;;;;7.45;6.47;;;16.50;99.90;;;;;;5006234;28;20065;-72
2022/07/10 06:50:21;;;;;;;6.97;5.70;;;16.60;99.90;;;;;;5015206;28;20088;-72
2022/07/10 06:52:53;;;;;;;5.32;4.65;;;16.60;99.90;;;;;;4980526;28;20049;-72
2022/07/10 06:55:26;;;;;;;5.55;4.57;;;16.60;99.90;;;;;;5004625;28;20034;-72
2022/07/10 06:57:57;;;;;;;5.18;4.65;;;16.70;99.90;;;;;;5015072;28;20034;-72
2022/07/10 07:00:29;;;;;;;6.32;4.25;;;16.70;99.90;;;;;;5015135;28;20536;-71
2022/07/10 07:03:01;;;;;;;6.55;4.63;;;16.50;99.90;;;;;;4996913;28;20053;-71
2022/07/10 07:05:33;;;;;;;6.63;4.65;;;16.40;99.90;;;;;;5016358;28;20038;-72
2022/07/10 07:08:04;;;;;;;5.53;4.55;;;16.30;99.90;;;;;;5013823;28;20125;-72
2022/07/10 07:10:37;;;;;;;6.10;4.85;;;16.30;99.90;;;;;;5006614;28;20476;-72
2022/07/10 07:13:09;;;;;;;5.53;4.82;;;16.20;99.90;;;;;;4990945;28;20043;-72
2022/07/10 07:15:41;;;;;;;9.77;4.88;;;16.20;99.90;;;;;;5019237;28;20121;-72
2022/07/10 07:18:15;;;;;;;7.95;5.28;;;16.30;99.90;;;;;;5014517;28;20056;-71
2022/07/10 07:23:37;;;;;;;6.22;5.47;;;16.20;99.90;;;;;;5002209;28;20120;-72
2022/07/10 07:26:09;;;;;;;6.13;4.60;;;16.20;99.90;;;;;;5033436;28;20045;-73
2022/07/10 07:28:36;;;;;;;8.32;5.45;;;16.20;99.90;;;;;;4991902;28;20498;-71
2022/07/10 07:31:08;;;;;;;5.82;4.93;;;16.20;99.90;;;;;;4996826;28;20056;-71
2022/07/10 07:33:39;;;;;;;7.50;4.75;;;16.30;99.90;;;;;;5018261;28;20043;-72
2022/07/10 07:36:11;;;;;;;5.63;4.68;;;16.40;99.90;;;;;;4998207;28;20038;-72
2022/07/10 07:38:43;;;;;;;5.00;3.92;;;16.40;99.90;;;;;;5006017;28;20382;-72
2022/07/10 07:41:15;;;;;;;7.32;4.38;;;16.60;99.90;;;;;;5013978;28;20038;-72
2022/07/10 07:43:46;;;;;;;5.78;3.60;;;16.60;99.90;;;;;;5003111;28;20404;-72
2022/07/10 07:46:19;;;;;;;5.15;3.55;;;16.60;99.90;;;;;;5030525;28;20044;-72
2022/07/10 07:48:51;;;;;;;7.88;3.83;;;16.60;99.90;;;;;;4983658;28;20050;-72
2022/07/10 07:51:23;;;;;;;7.13;3.70;;;16.70;99.90;;;;;;4997191;28;20045;-72
2022/07/10 07:53:55;;;;;;;5.80;4.05;;;16.90;99.90;;;;;;4997849;28;20052;-72
2022/07/10 07:56:26;;;;;;;4.47;3.53;;;17.10;99.90;;;;;;5001693;28;20046;-72
2022/07/10 07:58:58;;;;;;;6.10;3.67;;;17.30;99.90;;;;;;5011800;28;20034;-71
2022/07/10 08:01:30;;;;;;;4.47;3.38;;;17.40;99.90;;;;;;5013739;28;20132;-71
2022/07/10 08:04:02;;;;;;;6.55;3.80;;;17.40;99.90;;;;;;4997929;28;20034;-71
2022/07/10 08:06:33;;;;;;;5.65;2.90;;;17.40;99.90;;;;;;5008158;28;20516;-73
2022/07/10 08:09:05;;;;;;;7.13;3.13;;;17.40;99.90;;;;;;5013589;28;20401;-72
2022/07/10 08:11:37;;;;;;;3.90;3.13;;;17.50;99.90;;;;;;4996646;28;20045;-72
2022/07/10 08:14:09;;;;;;;4.20;3.33;;;17.60;99.90;;;;;;5010246;28;20048;-72
2022/07/10 08:16:41;;;;;;;3.53;3.08;;;17.70;99.90;;;;;;5013470;28;20037;-71
2022/07/10 08:19:12;;;;;;;7.07;3.58;;;17.80;99.90;;;;;;5012419;28;20038;-71
2022/07/10 08:21:44;;;;;;;5.20;3.63;;;17.90;99.90;;;;;;4994235;28;20037;-70
2022/07/10 08:24:16;;;;;;;5.40;3.00;;;17.90;99.90;;;;;;5010571;28;20044;-71
2022/07/10 08:26:47;;;;;;;5.43;3.50;;;18.10;99.90;;;;;;5012614;28;20036;-74
2022/07/10 08:29:20;;;;;;;5.43;3.00;;;18.10;99.90;;;;;;5007287;28;20049;-72
2022/07/10 08:31:52;;;;;;;2.97;2.67;;;18.10;99.90;;;;;;4991023;28;20502;-72
2022/07/10 08:34:24;;;;;;;6.10;2.95;;;18.10;99.90;;;;;;4996522;28;20624;-72
2022/07/10 08:36:55;;;;;;;3.55;2.80;;;18.10;99.90;;;;;;5009816;28;20034;-71
2022/07/10 08:39:27;;;;;;;4.38;2.53;;;18.10;99.90;;;;;;4989280;28;20049;-72
2022/07/10 08:41:54;;;;;;;5.95;2.97;;;17.90;99.90;;;;;;5006794;28;20042;-71
2022/07/10 08:44:27;;;;;;;3.67;2.90;;;17.90;99.90;;;;;;5003465;28;20052;-71
2022/07/10 08:46:59;;;;;;;5.90;3.45;;;17.90;99.90;;;;;;4992942;28;20056;-71
2022/07/10 08:49:33;;;;;;;3.53;2.92;;;17.90;99.90;;;;;;5013001;28;20053;-71
2022/07/10 08:52:08;;;;;;;5.90;3.75;;;17.90;99.90;;;;;;5006606;28;20654;-71
2022/07/10 08:54:41;;;;;;;5.22;2.72;;;18.10;99.90;;;;;;4996692;28;20418;-71
2022/07/10 08:57:15;;;;;;;5.67;2.80;;;18.20;99.90;;;;;;5004405;28;20065;-71
2022/07/10 08:59:47;;;;;;;3.72;2.60;;;18.40;99.90;;;;;;5012732;28;20454;-70
2022/07/10 09:02:18;;;;;;;5.00;2.63;;;18.50;99.90;;;;;;5012817;28;20099;-70
2022/07/10 09:04:50;;;;;;;5.13;2.90;;;18.50;99.90;;;;;;5021573;28;20432;-71
2022/07/10 09:07:23;;;;;;;4.53;2.60;;;18.50;99.90;;;;;;5018084;28;20037;-71
2022/07/10 09:09:56;;;;;;;4.95;2.78;;;18.40;99.90;;;;;;5012723;28;20049;-71
2022/07/10 09:12:28;;;;;;;4.28;2.75;;;18.30;99.90;;;;;;5012680;28;20041;-69
2022/07/10 09:15:17;;;;;;;3.38;2.90;;;18.30;99.90;;;;;;5013107;28;20042;-71
2022/07/10 09:18:09;;;;;;;2.97;2.42;;;18.40;99.90;;;;;;5005776;28;20046;-71
2022/07/10 09:20:42;;;;;;;4.97;2.40;;;18.30;99.90;;;;;;5013024;28;20787;-69
2022/07/10 09:23:15;;;;;;;4.22;2.33;;;18.30;99.90;;;;;;5013351;28;20123;-69
2022/07/10 09:25:48;;;;;;;5.00;2.47;;;18.30;99.90;;;;;;4997976;28;20048;-69
2022/07/10 09:28:23;;;;;;;3.97;2.15;;;18.50;99.90;;;;;;5012883;28;20100;-68
2022/07/10 09:30:56;;;;;;;;;;;18.70;99.90;;;;;;4996533;28;20049;-69
2022/07/10 09:33:30;;;;;;;4.40;2.50;;;18.80;99.90;;;;;;4996466;28;19921;-69
2022/07/10 09:38:44;;;;;;;3.80;2.17;;;18.80;99.90;;;;;;5023090;28;20486;-69
2022/07/10 09:41:24;;;;;;;5.40;1.98;;;18.70;99.90;;;;;;5012700;28;20038;-69
2022/07/10 09:43:57;;;;;;;3.72;2.72;;;18.60;99.90;;;;;;5013181;28;20073;-69
2022/07/10 09:46:38;;;;;;;4.18;2.42;;;18.60;99.90;;;;;;5000631;28;20062;-69
2022/07/10 09:49:14;;;;;;;4.97;2.63;;;18.70;99.90;;;;;;4985654;28;20153;-69
2022/07/10 09:51:46;;;;;;;3.13;1.95;;;18.90;99.90;;;;;;5012259;28;20084;-69
2022/07/10 09:54:18;;;;;;;5.32;2.17;;;19.10;99.90;;;;;;4997682;28;20510;-69
2022/07/10 09:56:55;;;;;;;3.42;2.03;;;19.30;99.90;;;;;;4999574;28;20042;-69
2022/07/10 09:59:31;;;;;;;3.10;1.90;;;19.50;99.90;;;;;;4991873;28;20129;-69
2022/07/10 10:02:03;;;;;;;2.88;2.10;;;19.40;99.90;;;;;;4994951;28;20138;-70
2022/07/10 10:04:37;;;;;;;3.00;1.70;;;19.30;99.90;;;;;;4995015;28;20524;-70
2022/07/10 10:07:10;;;;;;;3.20;1.80;;;19.20;99.90;;;;;;5002751;28;20141;-68
2022/07/10 10:09:49;;;;;;;3.65;1.60;;;19.20;99.90;;;;;;4998561;28;20073;-69
2022/07/10 10:12:31;;;;;;;2.65;1.73;;;19.10;99.90;;;;;;5016165;28;20045;-69
2022/07/10 10:15:05;;;;;;;3.47;2.10;;;19.00;99.90;;;;;;5024471;28;20691;-69
2022/07/10 10:17:40;;;;;;;3.30;1.42;;;18.90;99.90;;;;;;5016069;28;20037;-69
2022/07/10 10:23:04;;;;;;;3.35;1.63;;;18.90;99.90;;;;;;5014784;28;20049;-70
2022/07/10 10:25:37;;;;;;;3.55;1.90;;;19.20;99.90;;;;;;5034900;28;20037;-69
2022/07/10 10:28:10;;;;;;;2.53;1.95;;;19.50;99.90;;;;;;5035773;28;20034;-69
2022/07/10 10:30:45;;;;;;;2.90;1.70;;;19.70;99.90;;;;;;5015382;28;20045;-69
2022/07/10 10:33:32;;;;;;;2.15;1.70;;;19.60;99.90;;;;;;5015720;28;20043;-70
2022/07/10 10:36:07;;;;;;;6.63;3.17;;;19.30;99.90;;;;;;5017217;28;20044;-69
2022/07/10 10:38:45;;;;;;;1.50;1.40;;;19.10;99.90;;;;;;4981942;28;20042;-69
2022/07/10 10:41:51;;;;;;;3.17;1.98;;;19.10;99.90;;;;;;5015767;28;20065;-69
2022/07/10 10:44:24;;;;;;;2.78;1.33;;;19.10;99.90;;;;;;4971242;28;20069;-69
2022/07/10 10:47:02;;;;;;;2.40;1.40;;;19.30;99.90;;;;;;5015485;28;20531;-69
2022/07/10 10:50:01;;;;;;;3.00;1.50;;;19.40;99.90;;;;;;4995627;28;20141;-69
2022/07/10 10:52:33;;;;;;;4.57;1.67;;;19.50;99.90;;;;;;5015505;28;20046;-69
2022/07/10 10:55:08;;;;;;;1.98;1.30;;;19.40;99.90;;;;;;4996046;28;20066;-71
2022/07/10 10:57:51;;;;;;;3.70;2.00;;;19.10;99.90;;;;;;5011431;28;20081;-72
2022/07/10 11:00:37;;;;;;;4.07;1.50;;;19.10;99.90;;;;;;5014872;28;20038;-72
2022/07/10 11:03:20;;;;;;;3.05;1.40;;;19.30;99.90;;;;;;4996655;28;20077;-71
2022/07/10 11:05:52;;;;;;;3.33;1.63;;;19.50;99.90;;;;;;5034328;28;20441;-69
2022/07/10 11:08:43;;;;;;;2.50;1.60;;;19.70;99.90;;;;;;5005180;28;20050;-70
2022/07/10 11:11:30;;;;;;;2.28;1.30;;;19.90;99.90;;;;;;5013207;28;20045;-69
2022/07/10 11:14:03;;;;;;;2.33;1.45;;;20.00;99.90;;;;;;5001200;28;20056;-71
2022/07/10 11:16:37;;;;;;;3.72;1.50;;;20.00;99.90;;;;;;5015963;28;20034;-69
2022/07/10 11:19:09;;;;;;;2.42;1.60;;;20.20;99.90;;;;;;4997252;28;20140;-69
2022/07/10 11:21:47;;;;;;;4.30;1.50;;;19.90;99.90;;;;;;4995002;28;20049;-70
2022/07/10 11:24:44;;;;;;;5.38;1.50;;;19.70;99.90;;;;;;4999534;28;20049;-69
2022/07/10 11:27:34;;;;;;;4.13;1.77;;;19.90;99.90;;;;;;4995856;28;20038;-69
2022/07/10 11:30:06;;;;;;;3.90;2.20;;;20.10;99.40;;;;;;4991420;28;20061;-69
2022/07/10 11:32:37;;;;;;;4.07;2.15;;;20.20;99.00;;;;;;4996947;28;20494;-69
2022/07/10 11:35:12;;;;;;;2.65;1.90;;;20.40;99.30;;;;;;4999511;28;20050;-71
2022/07/10 11:37:52;;;;;;;1.60;1.50;;;20.70;98.90;;;;;;5009363;28;20047;-71
2022/07/10 11:40:24;;;;;;;3.10;1.40;;;20.70;98.80;;;;;;5002655;28;20053;-72
2022/07/10 11:42:57;;;;;;;2.80;1.48;;;20.50;99.40;;;;;;4995983;28;20050;-71
2022/07/10 11:45:36;;;;;;;3.13;1.60;;;20.10;99.10;;;;;;5012729;28;20046;-72
2022/07/10 11:48:19;;;;;;;2.28;1.40;;;20.10;99.10;;;;;;4982676;28;20052;-71
2022/07/10 11:50:46;;;;;;;2.47;1.65;;;20.20;98.60;;;;;;5013914;28;20128;-71
2022/07/10 11:53:26;;;;;;;1.60;1.30;;;20.40;96.90;;;;;;4995997;28;20038;-71
2022/07/10 11:59:03;;;;;;;2.10;1.20;;;21.00;97.50;;;;;;4977932;28;20046;-89
2022/07/10 12:01:35;;;;;;;2.80;1.40;;;21.40;97.00;;;;;;4973555;28;20074;-88
2022/07/10 12:04:04;;;;;;;1.60;1.33;;;21.30;96.50;;;;;;4975225;28;20058;-85
2022/07/10 12:06:33;;;;;;;3.47;1.35;;;21.10;95.80;;;;;;4977150;28;20521;-86
2022/07/10 12:09:08;;;;;;;2.80;1.45;;;21.00;96.30;;;;;;4970452;28;20123;-86
2022/07/10 12:11:36;;;;;;;2.20;1.25;;;21.20;96.30;;;;;;5018373;23;20120;-72
2022/07/10 12:14:18;;;;;;;4.22;1.65;;;21.30;96.10;;;;;;5024128;28;20443;-72
2022/07/10 12:16:51;;;;;;;4.20;1.42;;;21.50;96.40;;;;;;4994187;28;20066;-72
2022/07/10 12:19:36;;;;;;;3.45;1.38;;;21.70;95.70;;;;;;5002233;28;20050;-73
2022/07/10 12:22:07;;;;;;;2.30;1.30;;;21.90;94.50;;;;;;5004049;28;20046;-72
2022/07/10 12:24:41;;;;;;;2.30;1.20;;;21.50;93.70;;;;;;4999197;28;20042;-73
2022/07/10 12:27:09;;;;;;;1.88;1.25;;;21.40;93.90;;;;;;4999033;28;20687;-72
2022/07/10 12:29:40;;;;;;;4.00;1.65;;;21.30;94.10;;;;;;5001737;28;20991;-72
2022/07/10 12:32:19;;;;;;;3.25;1.60;;;21.20;94.00;;;;;;5003222;28;20046;-72
2022/07/10 12:34:53;;;;;;;6.10;1.60;;;21.30;94.60;;;;;;5000631;28;20056;-72
2022/07/10 12:37:25;;;;;;;4.20;1.48;;;21.10;94.20;;;;;;4978178;28;20054;-72
2022/07/10 12:39:57;;;;;;;2.72;1.40;;;21.10;94.10;;;;;;5002271;28;20056;-74
2022/07/10 12:42:29;;;;;;;3.05;1.40;;;21.30;93.90;;;;;;5004968;28;20042;-72
2022/07/10 12:45:12;;;;;;;2.15;1.73;;;21.50;94.20;;;;;;5009915;28;20061;-73
2022/07/10 12:47:48;;;;;;;4.88;1.40;;;21.60;93.60;;;;;;4988778;28;20042;-72
2022/07/10 12:50:20;;;;;;;6.03;1.45;;;21.40;94.10;;;;;;4998567;28;20056;-71
2022/07/10 12:53:11;;;;;;;2.15;1.35;;;21.00;94.40;;;;;;4999908;28;20057;-73
2022/07/10 12:55:43;;;;;;;3.35;1.38;;;20.90;94.90;;;;;;5038316;28;20144;-72
2022/07/10 12:58:15;;;;;;;3.78;1.77;;;20.70;94.70;;;;;;5000498;28;20042;-73
2022/07/10 13:00:50;;;;;;;3.83;1.52;;;20.80;95.10;;;;;;5009849;28;20033;-72
2022/07/10 13:03:23;;;;;;;1.73;1.40;;;21.10;94.00;;;;;;5006826;28;20060;-72
2022/07/10 13:05:57;;;;;;;4.35;1.40;;;21.20;93.20;;;;;;5038845;28;20425;-74
2022/07/10 13:08:29;;;;;;;;;;;21.30;92.60;;;;;;4993077;28;20054;-73
2022/07/10 13:11:01;;;;;;;2.33;1.38;;;21.30;91.80;;;;;;5005072;28;19931;-75
2022/07/10 13:13:33;;;;;;;2.47;1.40;;;21.40;92.80;;;;;;4993408;28;20410;-73
2022/07/10 13:16:05;;;;;;;2.95;1.15;;;21.50;92.50;;;;;;4988158;28;20513;-74
2022/07/10 13:18:37;;;;;;;2.83;1.33;;;21.40;93.10;;;;;;4988156;28;20038;-72
2022/07/10 13:21:10;;;;;;;6.10;1.70;;;21.60;93.10;;;;;;5015521;28;20579;-74
2022/07/10 13:23:42;;;;;;;2.70;1.27;;;21.90;92.60;;;;;;5025495;28;20074;-74
2022/07/10 13:26:14;;;;;;;3.28;1.75;;;22.10;92.10;;;;;;5012185;28;20095;-76
2022/07/10 13:28:46;;;;;;;2.13;1.50;;;22.20;92.10;;;;;;4999399;28;20045;-72
2022/07/10 13:31:18;;;;;;;2.60;1.40;;;22.30;91.10;;;;;;4992445;28;20052;-72
2022/07/10 13:33:49;;;;;;;3.13;1.50;;;22.20;90.30;;;;;;5000251;28;20533;-74
2022/07/10 13:36:16;;;;;;;2.47;1.40;;;22.10;90.10;;;;;;5017509;28;20084;-74
2022/07/10 13:38:43;;;;;;;5.10;1.95;;;22.00;91.50;;;;;;4996115;28;20074;-73
2022/07/10 13:41:15;;;;;;;5.65;2.20;;;22.10;91.10;;;;;;5000266;28;20042;-73